createdAt,value
2022-10-22T00:00:05.605Z,13.24
2022-10-22T00:01:07.632Z,13.27
2022-10-22T00:02:09.591Z,13.29
2022-10-22T00:03:11.503Z,13.30
2022-10-22T00:04:13.380Z,13.30
2022-10-22T00:05:15.223Z,13.28
2022-10-22T00:06:17.183Z,13.26
2022-10-22T00:07:19.068Z,13.27
2022-10-22T00:08:20.913Z,13.28
2022-10-22T00:09:22.756Z,13.31
2022-10-22T00:10:24.632Z,13.32
2022-10-22T00:11:27.356Z,13.31
2022-10-22T00:12:29.185Z,13.29
2022-10-22T00:13:31.101Z,13.29
2022-10-22T00:14:32.841Z,13.30
2022-10-22T00:15:34.639Z,13.26
2022-10-22T00:16:36.401Z,13.25
2022-10-22T00:17:38.526Z,13.27
2022-10-22T00:18:41.156Z,13.26
2022-10-22T00:19:43.142Z,13.24
2022-10-22T00:20:44.991Z,13.23
2022-10-22T00:21:46.797Z,13.23
2022-10-22T00:22:48.915Z,13.25
2022-10-22T00:23:50.802Z,13.28
2022-10-22T00:24:52.585Z,13.31
2022-10-22T00:25:54.431Z,13.32
2022-10-22T00:26:56.226Z,13.30
2022-10-22T00:27:58.027Z,13.31
2022-10-22T00:28:59.896Z,13.30
2022-10-22T00:30:01.714Z,13.28
2022-10-22T00:31:03.702Z,13.27
2022-10-22T00:32:05.948Z,13.28
2022-10-22T00:33:07.725Z,13.25
2022-10-22T00:34:09.599Z,13.21
2022-10-22T00:35:11.382Z,13.19
2022-10-22T00:36:13.268Z,13.18
2022-10-22T00:37:15.173Z,13.18
2022-10-22T00:38:17.165Z,13.16
2022-10-22T00:39:20.240Z,13.16
2022-10-22T00:40:22.072Z,13.17
2022-10-22T00:41:23.861Z,13.19
2022-10-22T00:42:27.027Z,13.15
2022-10-22T00:43:28.798Z,13.18
2022-10-22T00:44:49.498Z,13.21
2022-10-22T00:45:51.327Z,13.18
2022-10-22T00:46:53.108Z,13.18
2022-10-22T00:48:13.467Z,13.23
2022-10-22T00:49:15.278Z,13.24
2022-10-22T00:50:23.986Z,13.26
2022-10-22T00:51:28.789Z,13.28
2022-10-22T00:52:30.604Z,13.29
2022-10-22T00:53:35.260Z,13.30
2022-10-22T00:54:37.945Z,13.29
2022-10-22T00:55:40.727Z,13.29
2022-10-22T00:56:42.563Z,13.32
2022-10-22T00:57:44.715Z,13.32
2022-10-22T00:58:52.400Z,13.32
2022-10-22T00:59:55.042Z,13.30
2022-10-22T01:00:57.566Z,13.28
2022-10-22T01:01:59.682Z,13.26
2022-10-22T01:03:01.802Z,13.29
2022-10-22T01:04:03.621Z,13.33
2022-10-22T01:05:05.549Z,13.34
2022-10-22T01:06:07.948Z,13.33
2022-10-22T01:07:15.909Z,13.35
2022-10-22T01:08:22.574Z,13.35
2022-10-22T01:09:27.247Z,13.35
2022-10-22T01:10:38.229Z,13.33
2022-10-22T01:11:49.651Z,13.36
2022-10-22T01:13:13.610Z,13.40
2022-10-22T01:14:23.312Z,13.45
2022-10-22T01:15:29.927Z,13.45
2022-10-22T01:16:31.696Z,13.46
2022-10-22T01:17:41.831Z,13.48
2022-10-22T01:18:49.337Z,13.50
2022-10-22T01:20:04.299Z,13.51
2022-10-22T01:21:09.063Z,13.51
2022-10-22T01:22:29.604Z,13.50
2022-10-22T01:23:40.448Z,13.47
2022-10-22T01:24:45.161Z,13.44
2022-10-22T01:25:46.888Z,13.41
2022-10-22T01:27:12.156Z,13.44
2022-10-22T01:28:21.832Z,13.42
2022-10-22T01:29:30.656Z,13.40
2022-10-22T01:30:33.576Z,13.36
2022-10-22T01:31:38.766Z,13.32
2022-10-22T01:32:46.464Z,13.30
2022-10-22T01:33:49.658Z,13.32
2022-10-22T01:34:54.320Z,13.35
2022-10-22T01:35:57.961Z,13.38
2022-10-22T01:37:00.240Z,13.36
2022-10-22T01:38:04.469Z,13.34
2022-10-22T01:39:07.614Z,13.35
2022-10-22T01:40:10.354Z,13.32
2022-10-22T01:41:12.746Z,13.32
2022-10-22T01:42:15.279Z,13.34
2022-10-22T01:43:17.031Z,13.36
2022-10-22T01:44:32.898Z,13.35
2022-10-22T01:45:40.719Z,13.38
2022-10-22T01:46:42.518Z,13.42
2022-10-22T01:48:23.060Z,13.38
2022-10-22T01:49:31.148Z,13.36
2022-10-22T01:50:32.915Z,13.38
2022-10-22T01:51:37.447Z,13.34
2022-10-22T01:52:57.916Z,13.31
2022-10-22T01:54:10.043Z,13.32
2022-10-22T01:55:20.261Z,13.29
2022-10-22T01:56:41.284Z,13.25
2022-10-22T01:57:43.352Z,13.22
2022-10-22T01:59:03.361Z,13.25
2022-10-22T02:00:05.359Z,13.28
2022-10-22T02:01:20.925Z,13.29
2022-10-22T02:02:22.792Z,13.31
2022-10-22T02:03:29.670Z,13.24
2022-10-22T02:04:31.395Z,13.24
2022-10-22T02:05:33.223Z,13.22
2022-10-22T02:06:37.120Z,13.24
2022-10-22T02:07:42.529Z,13.23
2022-10-22T02:08:45.642Z,13.23
2022-10-22T02:09:48.053Z,13.25
2022-10-22T02:10:50.462Z,13.25
2022-10-22T02:11:52.880Z,13.26
2022-10-22T02:12:56.290Z,13.30
2022-10-22T02:14:00.121Z,13.30
2022-10-22T02:15:03.227Z,13.32
2022-10-22T02:16:07.282Z,13.35
2022-10-22T02:17:11.699Z,13.37
2022-10-22T02:18:14.644Z,13.38
2022-10-22T02:19:23.700Z,13.37
2022-10-22T02:20:30.163Z,13.35
2022-10-22T02:21:32.275Z,13.35
2022-10-22T02:22:34.416Z,13.37
2022-10-22T02:23:36.415Z,13.37
2022-10-22T02:24:38.221Z,13.40
2022-10-22T02:25:42.347Z,13.43
2022-10-22T02:26:49.178Z,13.45
2022-10-22T02:28:13.770Z,13.44
2022-10-22T02:29:35.339Z,13.39
2022-10-22T02:30:38.899Z,13.42
2022-10-22T02:31:43.561Z,13.44
2022-10-22T02:32:51.771Z,13.46
2022-10-22T02:33:56.180Z,13.47
2022-10-22T02:34:58.790Z,13.46
2022-10-22T02:36:01.495Z,13.48
2022-10-22T02:37:03.741Z,13.49
2022-10-22T02:38:05.890Z,13.48
2022-10-22T02:39:08.393Z,13.47
2022-10-22T02:40:10.751Z,13.48
2022-10-22T02:41:12.495Z,13.46
2022-10-22T02:42:15.007Z,13.46
2022-10-22T02:43:18.210Z,13.46
2022-10-22T02:44:21.399Z,13.46
2022-10-22T02:45:23.383Z,13.44
2022-10-22T02:46:26.192Z,13.44
2022-10-22T02:47:28.027Z,13.43
2022-10-22T02:48:29.820Z,13.44
2022-10-22T02:49:31.756Z,13.42
2022-10-22T02:50:33.526Z,13.39
2022-10-22T02:51:35.362Z,13.37
2022-10-22T02:52:37.444Z,13.38
2022-10-22T02:53:39.857Z,13.38
2022-10-22T02:54:41.677Z,13.36
2022-10-22T02:55:43.417Z,13.35
2022-10-22T02:56:45.270Z,13.35
2022-10-22T02:57:47.091Z,13.30
2022-10-22T02:58:48.887Z,13.31
2022-10-22T02:59:50.699Z,13.31
2022-10-22T03:00:52.576Z,13.31
2022-10-22T03:01:54.513Z,13.30
2022-10-22T03:02:56.280Z,13.30
2022-10-22T03:03:58.036Z,13.31
2022-10-22T03:04:59.991Z,13.30
2022-10-22T03:06:01.798Z,13.28
2022-10-22T03:07:03.756Z,13.24
2022-10-22T03:08:05.615Z,13.23
2022-10-22T03:09:07.471Z,13.27
2022-10-22T03:10:09.607Z,13.28
2022-10-22T03:11:11.447Z,13.27
2022-10-22T03:12:13.369Z,13.28
2022-10-22T03:13:15.131Z,13.30
2022-10-22T03:14:16.904Z,13.29
2022-10-22T03:15:18.819Z,13.30
2022-10-22T03:16:20.667Z,13.31
2022-10-22T03:17:22.473Z,13.28
2022-10-22T03:18:24.295Z,13.27
2022-10-22T03:19:26.079Z,13.26
2022-10-22T03:20:28.203Z,13.27
2022-10-22T03:21:38.134Z,13.28
2022-10-22T03:22:41.425Z,13.27
2022-10-22T03:23:44.091Z,13.26
2022-10-22T03:24:49.099Z,13.25
2022-10-22T03:25:51.024Z,13.25
2022-10-22T03:26:53.295Z,13.26
2022-10-22T03:27:56.600Z,13.28
2022-10-22T03:28:58.640Z,13.28
2022-10-22T03:30:00.528Z,13.29
2022-10-22T03:31:02.376Z,13.28
2022-10-22T03:32:04.235Z,13.30
2022-10-22T03:33:06.052Z,13.28
2022-10-22T03:34:08.034Z,13.27
2022-10-22T03:35:09.871Z,13.28
2022-10-22T03:36:11.715Z,13.30
2022-10-22T03:37:13.663Z,13.29
2022-10-22T03:38:15.712Z,13.29
2022-10-22T03:39:19.655Z,13.28
2022-10-22T03:40:21.560Z,13.24
2022-10-22T03:41:23.584Z,13.21
2022-10-22T03:42:25.440Z,13.23
2022-10-22T03:43:27.900Z,13.25
2022-10-22T03:44:30.302Z,13.26
2022-10-22T03:45:32.208Z,13.27
2022-10-22T03:46:34.040Z,13.28
2022-10-22T03:47:37.031Z,13.29
2022-10-22T03:48:38.929Z,13.32
2022-10-22T03:49:40.715Z,13.30
2022-10-22T03:50:42.454Z,13.32
2022-10-22T03:51:44.370Z,13.30
2022-10-22T03:52:46.219Z,13.27
2022-10-22T03:53:48.052Z,13.26
2022-10-22T03:54:49.868Z,13.27
2022-10-22T03:55:51.674Z,13.27
2022-10-22T03:56:53.519Z,13.29
2022-10-22T03:57:55.300Z,13.30
2022-10-22T03:58:58.053Z,13.30
2022-10-22T03:59:59.868Z,13.31
2022-10-22T04:01:06.436Z,13.32
2022-10-22T04:02:08.784Z,13.32
2022-10-22T04:03:10.603Z,13.32
2022-10-22T04:04:12.433Z,13.33
2022-10-22T04:06:21.140Z,13.36
2022-10-22T04:07:23.069Z,13.35
2022-10-22T04:08:24.851Z,13.35
2022-10-22T04:09:26.713Z,13.35
2022-10-22T04:10:28.541Z,13.34
2022-10-22T04:11:30.363Z,13.31
2022-10-22T04:12:32.207Z,13.31
2022-10-22T04:13:33.979Z,13.31
2022-10-22T04:14:35.781Z,13.31
2022-10-22T04:15:37.622Z,13.33
2022-10-22T04:16:40.487Z,13.29
2022-10-22T04:17:42.501Z,13.29
2022-10-22T04:18:44.921Z,13.30
2022-10-22T04:19:46.640Z,13.30
2022-10-22T04:20:48.580Z,13.29
2022-10-22T04:21:50.479Z,13.27
2022-10-22T04:22:52.299Z,13.25
2022-10-22T04:23:54.271Z,13.24
2022-10-22T04:24:56.060Z,13.23
2022-10-22T04:26:01.632Z,13.23
2022-10-22T04:27:03.411Z,13.23
2022-10-22T04:28:08.902Z,13.19
2022-10-22T04:29:15.952Z,13.21
2022-10-22T04:30:18.382Z,13.21
2022-10-22T04:31:21.307Z,13.23
2022-10-22T04:32:23.042Z,13.23
2022-10-22T04:33:25.240Z,13.23
2022-10-22T04:34:27.855Z,13.22
2022-10-22T04:35:29.742Z,13.22
2022-10-22T04:36:31.598Z,13.23
2022-10-22T04:37:34.379Z,13.20
2022-10-22T04:38:36.324Z,13.15
2022-10-22T04:39:38.164Z,13.12
2022-10-22T04:40:40.023Z,13.09
2022-10-22T04:41:41.855Z,13.10
2022-10-22T04:42:43.714Z,13.10
2022-10-22T04:43:46.043Z,13.10
2022-10-22T04:44:47.931Z,13.09
2022-10-22T04:45:49.883Z,13.07
2022-10-22T04:46:51.711Z,13.06
2022-10-22T04:47:53.607Z,13.06
2022-10-22T04:48:55.699Z,13.06
2022-10-22T04:49:57.554Z,13.07
2022-10-22T04:50:59.402Z,13.08
2022-10-22T04:52:01.178Z,13.09
2022-10-22T04:53:02.964Z,13.09
2022-10-22T04:54:04.992Z,13.07
2022-10-22T04:55:06.943Z,13.07
2022-10-22T04:56:13.558Z,13.06
2022-10-22T04:57:15.335Z,13.04
2022-10-22T04:58:17.162Z,13.01
2022-10-22T04:59:19.085Z,12.98
2022-10-22T05:00:21.010Z,12.97
2022-10-22T05:01:33.899Z,12.97
2022-10-22T05:02:36.703Z,12.97
2022-10-22T05:03:38.586Z,12.97
2022-10-22T05:04:40.478Z,12.97
2022-10-22T05:05:42.234Z,12.91
2022-10-22T05:06:44.584Z,12.90
2022-10-22T05:07:46.342Z,12.90
2022-10-22T05:08:48.442Z,12.91
2022-10-22T05:09:50.555Z,12.92
2022-10-22T05:10:52.328Z,12.95
2022-10-22T05:11:54.302Z,12.97
2022-10-22T05:12:56.117Z,12.96
2022-10-22T05:13:58.565Z,12.95
2022-10-22T05:15:00.406Z,12.94
2022-10-22T05:16:02.539Z,12.92
2022-10-22T05:17:04.388Z,12.91
2022-10-22T05:18:06.272Z,12.92
2022-10-22T05:19:08.723Z,12.96
2022-10-22T05:20:10.734Z,12.99
2022-10-22T05:21:14.389Z,13.01
2022-10-22T05:22:16.231Z,13.03
2022-10-22T05:23:18.052Z,13.06
2022-10-22T05:24:20.095Z,13.05
2022-10-22T05:25:21.973Z,13.00
2022-10-22T05:26:25.359Z,12.95
2022-10-22T05:27:27.348Z,12.92
2022-10-22T05:28:29.166Z,12.93
2022-10-22T05:29:31.056Z,12.95
2022-10-22T05:30:33.012Z,12.94
2022-10-22T05:31:35.170Z,12.91
2022-10-22T05:32:36.960Z,12.90
2022-10-22T05:33:39.099Z,12.90
2022-10-22T05:34:40.856Z,12.90
2022-10-22T05:35:46.641Z,12.92
2022-10-22T05:36:48.639Z,12.94
2022-10-22T05:37:50.411Z,12.96
2022-10-22T05:38:52.273Z,12.97
2022-10-22T05:40:01.822Z,12.98
2022-10-22T05:41:18.701Z,12.95
2022-10-22T05:42:20.481Z,12.93
2022-10-22T05:43:22.215Z,12.91
2022-10-22T05:44:23.998Z,12.91
2022-10-22T05:45:25.799Z,12.90
2022-10-22T05:46:29.036Z,12.92
2022-10-22T05:47:31.020Z,12.94
2022-10-22T05:49:39.558Z,12.99
2022-10-22T05:50:41.328Z,12.96
2022-10-22T05:51:43.196Z,12.93
2022-10-22T05:52:45.000Z,12.91
2022-10-22T05:53:46.890Z,12.92
2022-10-22T05:54:48.671Z,12.94
2022-10-22T05:55:50.472Z,12.97
2022-10-22T05:56:52.358Z,13.01
2022-10-22T05:57:54.162Z,13.04
2022-10-22T05:58:56.735Z,13.02
2022-10-22T05:59:58.499Z,13.04
2022-10-22T06:01:06.694Z,13.04
2022-10-22T06:02:12.039Z,13.04
2022-10-22T06:03:13.859Z,13.03
2022-10-22T06:04:17.349Z,13.02
2022-10-22T06:05:19.185Z,13.00
2022-10-22T06:06:28.144Z,13.01
2022-10-22T06:07:30.680Z,12.97
2022-10-22T06:08:32.533Z,12.96
2022-10-22T06:10:41.875Z,12.93
2022-10-22T06:11:43.881Z,12.93
2022-10-22T06:12:46.903Z,12.97
2022-10-22T06:13:49.252Z,13.00
2022-10-22T06:14:51.084Z,12.98
2022-10-22T06:15:55.996Z,13.01
2022-10-22T06:16:59.689Z,13.04
2022-10-22T06:18:01.523Z,13.06
2022-10-22T06:19:03.520Z,13.10
2022-10-22T06:21:13.215Z,13.12
2022-10-22T06:22:15.019Z,13.15
2022-10-22T06:23:16.856Z,13.17
2022-10-22T06:24:18.627Z,13.18
2022-10-22T06:25:20.460Z,13.21
2022-10-22T06:26:22.349Z,13.24
2022-10-22T06:27:24.141Z,13.26
2022-10-22T06:28:26.276Z,13.25
2022-10-22T06:29:28.023Z,13.24
2022-10-22T06:30:29.776Z,13.27
2022-10-22T06:31:37.191Z,13.28
2022-10-22T06:32:39.398Z,13.24
2022-10-22T06:33:44.664Z,13.23
2022-10-22T06:34:48.558Z,13.24
2022-10-22T06:35:50.428Z,13.25
2022-10-22T06:36:52.223Z,13.24
2022-10-22T06:37:54.009Z,13.21
2022-10-22T06:38:56.363Z,13.20
2022-10-22T06:39:58.134Z,13.19
2022-10-22T06:41:04.230Z,13.22
2022-10-22T06:42:06.072Z,13.23
2022-10-22T06:43:08.039Z,13.25
2022-10-22T06:44:14.165Z,13.26
2022-10-22T06:45:16.075Z,13.25
2022-10-22T06:46:20.174Z,13.25
2022-10-22T06:47:22.171Z,13.26
2022-10-22T06:48:23.984Z,13.26
2022-10-22T06:49:25.781Z,13.26
2022-10-22T06:50:27.673Z,13.27
2022-10-22T06:51:29.914Z,13.26
2022-10-22T06:52:31.701Z,13.22
2022-10-22T06:53:33.571Z,13.13
2022-10-22T06:54:35.428Z,13.13
2022-10-22T06:55:37.278Z,13.15
2022-10-22T06:56:39.155Z,13.18
2022-10-22T06:57:41.178Z,13.20
2022-10-22T06:58:43.580Z,13.19
2022-10-22T06:59:46.348Z,13.22
2022-10-22T07:00:48.727Z,13.23
2022-10-22T07:01:50.727Z,13.25
2022-10-22T07:02:57.642Z,13.28
2022-10-22T07:04:01.650Z,13.27
2022-10-22T07:05:03.485Z,13.26
2022-10-22T07:06:06.943Z,13.27
2022-10-22T07:07:08.861Z,13.23
2022-10-22T07:08:10.699Z,13.20
2022-10-22T07:09:12.561Z,13.22
2022-10-22T07:10:14.391Z,13.23
2022-10-22T07:11:17.948Z,13.25
2022-10-22T07:12:19.767Z,13.29
2022-10-22T07:13:21.728Z,13.31
2022-10-22T07:14:23.526Z,13.32
2022-10-22T07:15:25.470Z,13.32
2022-10-22T07:16:29.730Z,13.32
2022-10-22T07:17:34.333Z,13.30
2022-10-22T07:18:37.051Z,13.30
2022-10-22T07:19:39.430Z,13.29
2022-10-22T07:20:41.287Z,13.27
2022-10-22T07:21:43.164Z,13.27
2022-10-22T07:22:45.584Z,13.30
2022-10-22T07:23:47.503Z,13.30
2022-10-22T07:24:49.461Z,13.31
2022-10-22T07:25:51.271Z,13.32
2022-10-22T07:26:53.107Z,13.31
2022-10-22T07:27:54.904Z,13.32
2022-10-22T07:28:57.574Z,13.35
2022-10-22T07:30:01.390Z,13.37
2022-10-22T07:31:03.115Z,13.38
2022-10-22T07:32:05.103Z,13.41
2022-10-22T07:33:07.047Z,13.42
2022-10-22T07:34:09.373Z,13.42
2022-10-22T07:35:11.289Z,13.43
2022-10-22T07:36:17.974Z,13.44
2022-10-22T07:37:22.284Z,13.45
2022-10-22T07:38:24.072Z,13.45
2022-10-22T07:39:26.480Z,13.47
2022-10-22T07:40:28.275Z,13.48
2022-10-22T07:41:30.708Z,13.49
2022-10-22T07:42:32.538Z,13.48
2022-10-22T07:43:34.361Z,13.47
2022-10-22T07:44:36.201Z,13.45
2022-10-22T07:45:38.096Z,13.45
2022-10-22T07:46:40.096Z,13.47
2022-10-22T07:47:42.283Z,13.48
2022-10-22T07:48:44.275Z,13.49
2022-10-22T07:49:46.130Z,13.50
2022-10-22T07:50:49.598Z,13.52
2022-10-22T07:51:51.380Z,13.53
2022-10-22T07:52:54.895Z,13.53
2022-10-22T07:53:59.330Z,13.51
2022-10-22T07:55:01.202Z,13.50
2022-10-22T07:56:02.954Z,13.45
2022-10-22T07:57:04.723Z,13.36
2022-10-22T07:58:06.575Z,13.32
2022-10-22T07:59:08.385Z,13.37
2022-10-22T08:00:10.541Z,13.40
2022-10-22T08:01:12.442Z,13.46
2022-10-22T08:02:14.355Z,13.52
2022-10-22T08:03:18.045Z,13.55
2022-10-22T08:04:19.783Z,13.57
2022-10-22T08:05:21.604Z,13.58
2022-10-22T08:06:23.399Z,13.63
2022-10-22T08:08:30.937Z,13.69
2022-10-22T08:09:33.028Z,13.72
2022-10-22T08:10:35.643Z,13.74
2022-10-22T08:11:38.673Z,13.78
2022-10-22T08:12:41.597Z,13.76
2022-10-22T08:13:45.533Z,13.76
2022-10-22T08:14:47.510Z,13.80
2022-10-22T08:15:51.431Z,13.79
2022-10-22T08:16:55.488Z,13.80
2022-10-22T08:17:57.299Z,13.80
2022-10-22T08:18:59.156Z,13.79
2022-10-22T08:20:00.949Z,13.83
2022-10-22T08:21:02.914Z,13.87
2022-10-22T08:22:04.873Z,13.88
2022-10-22T08:23:06.670Z,13.88
2022-10-22T08:24:08.467Z,13.88
2022-10-22T08:25:10.957Z,13.91
2022-10-22T08:26:12.832Z,13.93
2022-10-22T08:27:14.788Z,13.95
2022-10-22T08:28:19.868Z,13.98
2022-10-22T08:29:24.254Z,14.01
2022-10-22T08:30:28.089Z,14.03
2022-10-22T08:31:29.933Z,14.05
2022-10-22T08:32:31.846Z,14.07
2022-10-22T08:33:34.018Z,14.07
2022-10-22T08:34:35.854Z,14.06
2022-10-22T08:35:37.628Z,14.07
2022-10-22T08:36:39.628Z,14.09
2022-10-22T08:37:41.861Z,14.12
2022-10-22T08:38:44.564Z,14.14
2022-10-22T08:39:46.661Z,14.12
2022-10-22T08:40:50.702Z,14.09
2022-10-22T08:41:52.499Z,14.09
2022-10-22T08:42:55.300Z,14.08
2022-10-22T08:44:07.920Z,14.10
2022-10-22T08:45:18.624Z,14.08
2022-10-22T08:46:20.912Z,14.09
2022-10-22T08:47:34.089Z,14.12
2022-10-22T08:48:38.855Z,14.16
2022-10-22T08:49:42.455Z,14.17
2022-10-22T08:50:46.553Z,14.18
2022-10-22T08:51:49.031Z,14.21
2022-10-22T08:52:53.987Z,14.21
2022-10-22T08:54:16.021Z,14.21
2022-10-22T08:55:17.940Z,14.22
2022-10-22T08:56:22.289Z,14.23
2022-10-22T08:57:29.215Z,14.25
2022-10-22T08:58:34.095Z,14.27
2022-10-22T08:59:47.436Z,14.27
2022-10-22T09:00:58.981Z,14.29
2022-10-22T09:02:01.687Z,14.32
2022-10-22T09:03:12.559Z,14.33
2022-10-22T09:04:25.832Z,14.34
2022-10-22T09:05:27.550Z,14.37
2022-10-22T09:06:30.508Z,14.40
2022-10-22T09:07:32.414Z,14.41
2022-10-22T09:08:35.698Z,14.45
2022-10-22T09:09:42.480Z,14.49
2022-10-22T09:10:47.834Z,14.50
2022-10-22T09:11:51.455Z,14.51
2022-10-22T09:12:53.298Z,14.48
2022-10-22T09:13:56.756Z,14.47
2022-10-22T09:14:58.686Z,14.47
2022-10-22T09:16:01.913Z,14.44
2022-10-22T09:17:13.003Z,14.44
2022-10-22T09:18:17.627Z,14.45
2022-10-22T09:19:38.356Z,14.48
2022-10-22T09:20:43.035Z,14.51
2022-10-22T09:22:03.543Z,14.53
2022-10-22T09:23:21.359Z,14.55
2022-10-22T09:24:40.068Z,14.55
2022-10-22T09:25:42.507Z,14.59
2022-10-22T09:26:44.360Z,14.62
2022-10-22T09:27:46.466Z,14.64
2022-10-22T09:28:51.722Z,14.66
2022-10-22T09:29:53.596Z,14.69
2022-10-22T09:30:55.520Z,14.70
2022-10-22T09:31:57.448Z,14.71
2022-10-22T09:33:07.460Z,14.73
2022-10-22T09:34:09.303Z,14.75
2022-10-22T09:35:12.590Z,14.75
2022-10-22T09:36:16.997Z,14.74
2022-10-22T09:37:20.241Z,14.73
2022-10-22T09:38:25.820Z,14.76
2022-10-22T09:39:29.167Z,14.76
2022-10-22T09:40:31.048Z,14.79
2022-10-22T09:41:33.474Z,14.81
2022-10-22T09:42:35.391Z,14.85
2022-10-22T09:43:37.396Z,14.85
2022-10-22T09:44:39.232Z,14.87
2022-10-22T09:45:41.996Z,14.88
2022-10-22T09:46:45.842Z,14.91
2022-10-22T09:48:01.526Z,14.95
2022-10-22T09:49:09.792Z,14.98
2022-10-22T09:50:11.772Z,15.00
2022-10-22T09:51:16.751Z,15.04
2022-10-22T09:52:28.659Z,15.08
2022-10-22T09:53:36.134Z,15.08
2022-10-22T09:54:39.631Z,15.06
2022-10-22T09:55:42.646Z,15.08
2022-10-22T09:56:51.368Z,15.09
2022-10-22T09:57:54.458Z,15.10
2022-10-22T09:58:57.504Z,15.11
2022-10-22T09:59:59.589Z,15.11
2022-10-22T10:01:01.934Z,15.13
2022-10-22T10:02:19.828Z,15.13
2022-10-22T10:03:31.294Z,15.18
2022-10-22T10:04:40.538Z,15.15
2022-10-22T10:05:44.356Z,15.17
2022-10-22T10:06:46.260Z,15.19
2022-10-22T10:07:48.602Z,15.22
2022-10-22T10:08:50.929Z,15.24
2022-10-22T10:09:54.074Z,15.27
2022-10-22T10:10:55.977Z,15.27
2022-10-22T10:12:16.627Z,15.24
2022-10-22T10:13:30.476Z,15.24
2022-10-22T10:14:37.994Z,15.25
2022-10-22T10:16:02.894Z,15.22
2022-10-22T10:17:07.818Z,15.23
2022-10-22T10:18:21.713Z,15.23
2022-10-22T10:19:26.583Z,15.24
2022-10-22T10:20:28.566Z,15.23
2022-10-22T10:21:33.364Z,15.25
2022-10-22T10:22:38.580Z,15.25
2022-10-22T10:23:40.737Z,15.25
2022-10-22T10:25:01.218Z,15.26
2022-10-22T10:26:14.821Z,15.27
2022-10-22T10:27:35.471Z,15.29
2022-10-22T10:28:46.189Z,15.30
2022-10-22T10:29:51.054Z,15.32
2022-10-22T10:31:16.190Z,15.34
2022-10-22T10:32:33.371Z,15.33
2022-10-22T10:33:52.130Z,15.34
2022-10-22T10:34:56.210Z,15.34
2022-10-22T10:36:30.384Z,15.36
2022-10-22T10:38:01.232Z,15.38
2022-10-22T10:39:24.500Z,15.36
2022-10-22T10:40:38.762Z,15.36
2022-10-22T10:41:51.893Z,15.36
2022-10-22T10:43:25.849Z,15.38
2022-10-22T10:44:27.685Z,15.38
2022-10-22T10:45:34.826Z,15.39
2022-10-22T10:46:55.194Z,15.38
2022-10-22T10:48:17.971Z,15.39
2022-10-22T10:49:31.703Z,15.42
2022-10-22T10:50:44.135Z,15.42
2022-10-22T10:51:45.919Z,15.40
2022-10-22T10:53:00.748Z,15.38
2022-10-22T10:54:16.611Z,15.35
2022-10-22T10:55:21.189Z,15.36
2022-10-22T10:56:23.008Z,15.38
2022-10-22T10:57:33.553Z,15.40
2022-10-22T10:58:43.556Z,15.39
2022-10-22T11:00:05.769Z,15.40
2022-10-22T11:01:23.166Z,15.41
2022-10-22T11:02:42.950Z,15.42
2022-10-22T11:04:03.913Z,15.45
2022-10-22T11:05:24.121Z,15.48
2022-10-22T11:06:27.035Z,15.50
2022-10-22T11:07:42.977Z,15.53
2022-10-22T11:08:50.353Z,15.56
2022-10-22T11:09:58.396Z,15.57
2022-10-22T11:11:06.730Z,15.58
2022-10-22T11:12:29.734Z,15.58
2022-10-22T11:13:54.737Z,15.58
2022-10-22T11:15:02.172Z,15.57
2022-10-22T11:16:22.449Z,15.55
2022-10-22T11:17:25.240Z,15.54
2022-10-22T11:18:33.391Z,15.55
2022-10-22T11:19:50.632Z,15.57
2022-10-22T11:21:12.333Z,15.57
2022-10-22T11:22:38.220Z,15.56
2022-10-22T11:23:46.493Z,15.56
2022-10-22T11:25:08.636Z,15.57
2022-10-22T11:26:15.598Z,15.58
2022-10-22T11:27:17.345Z,15.59
2022-10-22T11:28:33.262Z,15.60
2022-10-22T11:29:39.515Z,15.61
2022-10-22T11:30:42.156Z,15.62
2022-10-22T11:31:44.731Z,15.64
2022-10-22T11:32:49.368Z,15.64
2022-10-22T11:33:52.693Z,15.63
2022-10-22T11:35:04.562Z,15.64
2022-10-22T11:36:07.937Z,15.64
2022-10-22T11:37:11.557Z,15.63
2022-10-22T11:38:17.735Z,15.63
2022-10-22T11:39:38.015Z,15.58
2022-10-22T11:40:44.406Z,15.58
2022-10-22T11:41:46.504Z,15.58
2022-10-22T11:42:50.096Z,15.60
2022-10-22T11:43:53.461Z,15.60
2022-10-22T11:45:00.913Z,15.60
2022-10-22T11:46:25.842Z,15.58
2022-10-22T11:47:29.370Z,15.59
2022-10-22T11:48:36.630Z,15.58
2022-10-22T11:49:45.558Z,15.56
2022-10-22T11:50:53.129Z,15.56
2022-10-22T11:52:14.918Z,15.59
2022-10-22T11:53:23.494Z,15.62
2022-10-22T11:54:34.356Z,15.63
2022-10-22T11:55:55.798Z,15.64
2022-10-22T11:57:17.831Z,15.63
2022-10-22T11:58:25.766Z,15.62
2022-10-22T11:59:42.454Z,15.63
2022-10-22T12:00:48.262Z,15.62
2022-10-22T12:01:55.749Z,15.60
2022-10-22T12:03:18.124Z,15.59
2022-10-22T12:04:23.773Z,15.56
2022-10-22T12:05:25.598Z,15.55
2022-10-22T12:06:28.445Z,15.58
2022-10-22T12:07:34.932Z,15.58
2022-10-22T12:08:42.570Z,15.59
2022-10-22T12:09:47.708Z,15.61
2022-10-22T12:11:03.298Z,15.62
2022-10-22T12:12:13.689Z,15.62
2022-10-22T12:13:22.699Z,15.62
2022-10-22T12:14:29.861Z,15.62
2022-10-22T12:15:32.024Z,15.62
2022-10-22T12:16:54.763Z,15.59
2022-10-22T12:18:04.053Z,15.59
2022-10-22T12:19:12.999Z,15.60
2022-10-22T12:20:14.885Z,15.62
2022-10-22T12:21:17.450Z,15.63
2022-10-22T12:22:21.444Z,15.63
2022-10-22T12:23:27.187Z,15.62
2022-10-22T12:24:34.909Z,15.59
2022-10-22T12:25:36.971Z,15.59
2022-10-22T12:26:38.953Z,15.57
2022-10-22T12:27:41.480Z,15.56
2022-10-22T12:28:43.509Z,15.57
2022-10-22T12:29:45.307Z,15.56
2022-10-22T12:30:47.572Z,15.57
2022-10-22T12:31:49.517Z,15.58
2022-10-22T12:32:56.624Z,15.60
2022-10-22T12:33:59.073Z,15.61
2022-10-22T12:35:04.128Z,15.64
2022-10-22T12:36:06.456Z,15.65
2022-10-22T12:37:08.343Z,15.66
2022-10-22T12:38:14.248Z,15.67
2022-10-22T12:39:17.475Z,15.66
2022-10-22T12:40:24.669Z,15.63
2022-10-22T12:41:37.083Z,15.61
2022-10-22T12:42:38.931Z,15.62
2022-10-22T12:43:40.797Z,15.63
2022-10-22T12:44:43.813Z,15.65
2022-10-22T12:45:47.307Z,15.65
2022-10-22T12:46:53.005Z,15.68
2022-10-22T12:48:02.503Z,15.70
2022-10-22T12:49:09.589Z,15.71
2022-10-22T12:50:16.072Z,15.71
2022-10-22T12:51:20.276Z,15.71
2022-10-22T12:52:24.068Z,15.70
2022-10-22T12:53:38.069Z,15.69
2022-10-22T12:54:40.226Z,15.68
2022-10-22T12:55:42.381Z,15.69
2022-10-22T12:56:47.851Z,15.70
2022-10-22T12:57:49.828Z,15.70
2022-10-22T12:59:18.875Z,15.70
2022-10-22T13:00:33.665Z,15.70
2022-10-22T13:01:37.828Z,15.71
2022-10-22T13:02:39.908Z,15.72
2022-10-22T13:03:43.679Z,15.72
2022-10-22T13:05:05.463Z,15.73
2022-10-22T13:06:19.240Z,15.71
2022-10-22T13:07:22.311Z,15.69
2022-10-22T13:08:27.622Z,15.67
2022-10-22T13:09:38.441Z,15.66
2022-10-22T13:10:41.951Z,15.65
2022-10-22T13:11:58.509Z,15.65
2022-10-22T13:13:03.429Z,15.66
2022-10-22T13:14:06.229Z,15.66
2022-10-22T13:15:26.926Z,15.66
2022-10-22T13:16:30.618Z,15.65
2022-10-22T13:17:42.502Z,15.67
2022-10-22T13:18:45.522Z,15.67
2022-10-22T13:19:50.059Z,15.69
2022-10-22T13:20:51.965Z,15.69
2022-10-22T13:21:54.626Z,15.69
2022-10-22T13:23:03.721Z,15.69
2022-10-22T13:24:22.303Z,15.69
2022-10-22T13:25:28.914Z,15.69
2022-10-22T13:26:32.588Z,15.67
2022-10-22T13:27:34.560Z,15.64
2022-10-22T13:28:36.402Z,15.62
2022-10-22T13:29:41.919Z,15.62
2022-10-22T13:30:52.318Z,15.63
2022-10-22T13:31:54.401Z,15.64
2022-10-22T13:32:59.668Z,15.68
2022-10-22T13:34:06.571Z,15.66
2022-10-22T13:35:16.115Z,15.66
2022-10-22T13:36:18.463Z,15.64
2022-10-22T13:37:20.260Z,15.62
2022-10-22T13:38:23.636Z,15.61
2022-10-22T13:39:25.515Z,15.59
2022-10-22T13:40:27.634Z,15.59
2022-10-22T13:41:34.084Z,15.58
2022-10-22T13:42:36.303Z,15.57
2022-10-22T13:43:38.138Z,15.56
2022-10-22T13:44:39.947Z,15.59
2022-10-22T13:45:41.981Z,15.60
2022-10-22T13:46:43.894Z,15.62
2022-10-22T13:47:48.852Z,15.64
2022-10-22T13:48:53.037Z,15.65
2022-10-22T13:49:59.912Z,15.65
2022-10-22T13:51:01.694Z,15.65
2022-10-22T13:52:03.952Z,15.65
2022-10-22T13:53:06.337Z,15.65
2022-10-22T13:54:14.710Z,15.66
2022-10-22T13:55:36.680Z,15.65
2022-10-22T13:56:38.533Z,15.67
2022-10-22T13:57:40.441Z,15.68
2022-10-22T13:58:43.657Z,15.68
2022-10-22T13:59:45.525Z,15.68
2022-10-22T14:00:49.317Z,15.67
2022-10-22T14:01:51.568Z,15.71
2022-10-22T14:02:55.494Z,15.71